createdAt,value
2022-11-26T00:01:20.309Z,34.33
2022-11-26T00:03:47.555Z,34.78
2022-11-26T00:06:23.582Z,31.67
2022-11-26T00:08:50.200Z,32.80
2022-11-26T00:11:16.987Z,32.65
2022-11-26T00:13:43.593Z,34.58
2022-11-26T00:16:13.905Z,34.58
2022-11-26T00:18:41.797Z,34.85
2022-11-26T00:21:26.542Z,35.40
2022-11-26T00:23:54.617Z,35.70
2022-11-26T00:26:23.693Z,34.50
2022-11-26T00:29:00.691Z,33.83
2022-11-26T00:31:28.842Z,32.10
2022-11-26T00:33:55.508Z,30.85
2022-11-26T00:36:25.674Z,33.22
2022-11-26T00:38:55.790Z,32.00
2022-11-26T00:41:24.930Z,33.28
2022-11-26T00:43:51.762Z,34.95
2022-11-26T00:46:20.765Z,34.08
2022-11-26T00:48:47.764Z,33.58
2022-11-26T00:51:20.147Z,33.80
2022-11-26T00:53:48.210Z,34.85
2022-11-26T00:56:18.469Z,35.60
2022-11-26T00:58:46.385Z,37.40
2022-11-26T01:01:17.408Z,34.67
2022-11-26T01:03:44.440Z,38.38
2022-11-26T01:06:19.986Z,37.60
2022-11-26T01:08:47.549Z,35.25
2022-11-26T01:11:20.549Z,36.63
2022-11-26T01:13:49.411Z,34.00
2022-11-26T01:16:26.608Z,35.70
2022-11-26T01:18:56.797Z,36.13
2022-11-26T01:21:25.839Z,37.25
2022-11-26T01:23:52.779Z,37.42
2022-11-26T01:26:28.898Z,35.70
2022-11-26T01:28:55.851Z,34.85
2022-11-26T01:31:28.293Z,37.65
2022-11-26T01:33:55.739Z,35.47
2022-11-26T01:36:32.845Z,35.13
2022-11-26T01:39:02.660Z,34.33
2022-11-26T01:42:00.097Z,38.97
2022-11-26T01:44:30.704Z,36.97
2022-11-26T01:46:58.821Z,38.08
2022-11-26T01:49:33.556Z,38.55
2022-11-26T01:54:46.029Z,40.08
2022-11-26T01:57:29.785Z,41.08
2022-11-26T02:00:01.457Z,36.90
2022-11-26T02:02:29.327Z,37.83
2022-11-26T02:05:17.769Z,39.00
2022-11-26T02:07:45.167Z,43.40
2022-11-26T02:10:13.668Z,42.88
2022-11-26T02:12:41.380Z,40.40
2022-11-26T02:15:09.061Z,43.08
2022-11-26T02:18:08.718Z,43.05
2022-11-26T02:20:58.497Z,41.13
2022-11-26T02:23:52.197Z,42.13
2022-11-26T02:26:56.038Z,41.58
2022-11-26T02:29:30.669Z,42.47
2022-11-26T02:32:06.351Z,44.05
2022-11-26T02:34:47.653Z,44.17
2022-11-26T02:37:30.092Z,40.28
2022-11-26T02:39:57.494Z,43.90
2022-11-26T02:42:29.948Z,41.85
2022-11-26T02:45:04.266Z,45.00
2022-11-26T02:47:32.826Z,45.20
2022-11-26T02:50:03.045Z,42.83
2022-11-26T02:52:31.886Z,43.03
2022-11-26T02:54:59.793Z,42.95
2022-11-26T02:57:30.505Z,40.83
2022-11-26T02:59:57.413Z,39.72
2022-11-26T03:02:52.561Z,39.03
2022-11-26T03:05:20.493Z,40.65
2022-11-26T03:07:51.064Z,38.80
2022-11-26T03:10:20.253Z,38.53
2022-11-26T03:12:47.368Z,39.40
2022-11-26T03:15:13.904Z,36.70
2022-11-26T03:17:40.422Z,37.60
2022-11-26T03:20:07.850Z,38.80
2022-11-26T03:22:34.409Z,38.30
2022-11-26T03:25:00.901Z,37.50
2022-11-26T03:27:27.424Z,37.53
2022-11-26T03:29:53.917Z,39.33
2022-11-26T03:32:20.497Z,38.90
2022-11-26T03:34:47.025Z,38.67
2022-11-26T03:37:14.025Z,40.20
2022-11-26T03:39:41.013Z,36.50
2022-11-26T03:42:07.673Z,36.17
2022-11-26T03:44:34.172Z,38.17
2022-11-26T03:47:00.841Z,37.88
2022-11-26T03:49:27.451Z,36.53
2022-11-26T03:51:54.028Z,41.55
2022-11-26T03:54:20.623Z,38.60
2022-11-26T03:56:47.121Z,39.67
2022-11-26T03:59:13.654Z,39.47
2022-11-26T04:01:40.242Z,40.35
2022-11-26T04:04:06.927Z,38.83
2022-11-26T04:06:33.421Z,40.97
2022-11-26T04:09:00.064Z,39.20
2022-11-26T04:11:26.542Z,36.75
2022-11-26T04:13:53.094Z,39.42
2022-11-26T04:16:20.837Z,40.45
2022-11-26T04:18:48.257Z,42.20
2022-11-26T04:21:14.831Z,38.92
2022-11-26T04:23:41.441Z,37.90
2022-11-26T04:26:07.974Z,40.22
2022-11-26T04:28:34.514Z,38.38
2022-11-26T04:31:01.131Z,39.20
2022-11-26T04:33:27.746Z,37.17
2022-11-26T04:35:54.960Z,43.95
2022-11-26T04:38:25.685Z,38.35
2022-11-26T04:40:52.898Z,36.03
2022-11-26T04:43:19.405Z,37.90
2022-11-26T04:45:45.969Z,36.13
2022-11-26T04:48:12.578Z,38.60
2022-11-26T04:50:39.120Z,41.83
2022-11-26T04:53:05.655Z,39.50
2022-11-26T04:55:32.202Z,42.30
2022-11-26T04:57:59.287Z,37.83
2022-11-26T05:00:26.348Z,41.67
2022-11-26T05:02:53.055Z,38.45
2022-11-26T05:05:19.695Z,41.42
2022-11-26T05:07:46.389Z,38.60
2022-11-26T05:10:13.266Z,41.67
2022-11-26T05:12:39.886Z,36.97
2022-11-26T05:15:07.017Z,37.25
2022-11-26T05:17:33.577Z,37.70
2022-11-26T05:20:00.094Z,38.28
2022-11-26T05:22:26.849Z,38.33
2022-11-26T05:24:53.391Z,38.58
2022-11-26T05:27:19.915Z,37.53
2022-11-26T05:29:46.430Z,36.67
2022-11-26T05:32:13.029Z,39.60
2022-11-26T05:34:39.745Z,37.88
2022-11-26T05:37:06.372Z,40.72
2022-11-26T05:39:32.882Z,39.35
2022-11-26T05:42:00.363Z,39.20
2022-11-26T05:44:29.127Z,37.03
2022-11-26T05:46:55.620Z,41.45
2022-11-26T05:49:22.175Z,36.10
2022-11-26T05:51:48.764Z,36.95
2022-11-26T05:54:15.669Z,41.10
2022-11-26T05:56:43.396Z,37.60
2022-11-26T05:59:10.473Z,42.20
2022-11-26T06:01:37.411Z,41.50
2022-11-26T06:04:04.304Z,40.28
2022-11-26T06:06:31.060Z,43.00
2022-11-26T06:08:57.579Z,38.78
2022-11-26T06:11:24.225Z,41.25
2022-11-26T06:13:50.735Z,40.65
2022-11-26T06:16:17.673Z,39.08
2022-11-26T06:18:44.316Z,38.03
2022-11-26T06:21:11.387Z,39.28
2022-11-26T06:23:37.926Z,37.10
2022-11-26T06:26:12.374Z,36.70
2022-11-26T06:28:39.617Z,36.35
2022-11-26T06:31:07.992Z,36.17
2022-11-26T06:33:34.552Z,37.70
2022-11-26T06:36:02.448Z,38.55
2022-11-26T06:38:29.094Z,36.60
2022-11-26T06:41:04.106Z,35.88
2022-11-26T06:43:30.824Z,38.25
2022-11-26T06:46:05.776Z,37.20
2022-11-26T06:48:32.918Z,38.83
2022-11-26T06:51:14.586Z,37.20
2022-11-26T06:53:41.596Z,36.78
2022-11-26T06:56:17.787Z,38.53
2022-11-26T06:58:46.886Z,35.97
2022-11-26T07:01:23.681Z,35.65
2022-11-26T07:03:50.860Z,36.92
2022-11-26T07:06:25.967Z,36.05
2022-11-26T07:08:54.415Z,36.45
2022-11-26T07:11:21.444Z,40.97
2022-11-26T07:13:48.558Z,38.33
2022-11-26T07:16:15.682Z,38.00
2022-11-26T07:18:42.448Z,39.72
2022-11-26T07:21:11.911Z,38.97
2022-11-26T07:23:39.280Z,41.88
2022-11-26T07:26:07.416Z,38.00
2022-11-26T07:28:34.883Z,38.47
2022-11-26T07:31:03.366Z,38.63
2022-11-26T07:33:30.021Z,39.10
2022-11-26T07:36:00.931Z,37.33
2022-11-26T07:38:28.541Z,40.95
2022-11-26T07:40:55.822Z,37.58
2022-11-26T07:43:22.351Z,38.92
2022-11-26T07:45:48.952Z,36.83
2022-11-26T07:48:17.006Z,38.17
2022-11-26T07:50:45.027Z,35.97
2022-11-26T07:53:13.372Z,38.75
2022-11-26T07:55:40.581Z,37.45
2022-11-26T07:58:07.086Z,42.13
2022-11-26T08:00:33.640Z,39.63
2022-11-26T08:03:00.241Z,39.05
2022-11-26T08:05:26.839Z,39.83
2022-11-26T08:07:53.417Z,35.78
2022-11-26T08:10:19.987Z,36.72
2022-11-26T08:12:46.739Z,37.90
2022-11-26T08:15:13.368Z,35.78
2022-11-26T08:17:39.920Z,36.28
2022-11-26T08:20:07.156Z,36.58
2022-11-26T08:22:33.648Z,37.03
2022-11-26T08:25:00.209Z,38.00
2022-11-26T08:27:26.722Z,37.40
2022-11-26T08:29:53.213Z,37.25
2022-11-26T08:32:19.720Z,36.05
2022-11-26T08:34:46.264Z,38.00
2022-11-26T08:37:12.778Z,39.95
2022-11-26T08:39:39.444Z,38.38
2022-11-26T08:42:06.077Z,36.95
2022-11-26T08:44:32.628Z,34.30
2022-11-26T08:46:59.145Z,38.92
2022-11-26T08:49:25.803Z,37.25
2022-11-26T08:51:55.817Z,36.15
2022-11-26T08:54:23.581Z,36.15
2022-11-26T08:56:50.054Z,36.65
2022-11-26T08:59:17.584Z,35.80
2022-11-26T09:01:44.190Z,36.60
2022-11-26T09:04:10.797Z,35.58
2022-11-26T09:06:37.341Z,35.55
2022-11-26T09:09:15.659Z,33.70
2022-11-26T09:11:57.378Z,33.80
2022-11-26T09:14:26.730Z,35.45
2022-11-26T09:16:55.459Z,34.00
2022-11-26T09:19:23.047Z,34.67
2022-11-26T09:21:50.040Z,34.20
2022-11-26T09:24:17.717Z,33.58
2022-11-26T09:26:44.570Z,33.83
2022-11-26T09:29:16.620Z,31.38
2022-11-26T09:32:15.397Z,30.65
2022-11-26T09:34:32.193Z,32.17
2022-11-26T09:36:58.785Z,33.47
2022-11-26T09:39:25.305Z,31.40
2022-11-26T09:42:04.336Z,33.92
2022-11-26T09:44:55.717Z,31.20
2022-11-26T09:47:51.550Z,31.58
2022-11-26T09:50:27.588Z,31.13
2022-11-26T09:53:02.312Z,32.08
2022-11-26T09:58:16.237Z,33.75
2022-11-26T10:00:46.692Z,35.80
2022-11-26T10:03:22.258Z,33.28
2022-11-26T10:06:04.766Z,33.20
2022-11-26T10:08:55.840Z,35.72
2022-11-26T10:11:34.605Z,33.65
2022-11-26T10:14:04.379Z,37.00
2022-11-26T10:16:55.563Z,38.75
2022-11-26T10:19:43.482Z,38.25
2022-11-26T10:22:25.986Z,40.95
2022-11-26T10:24:53.222Z,51.65
2022-11-26T10:27:23.171Z,51.50
2022-11-26T10:30:16.952Z,49.03
2022-11-26T10:32:45.620Z,50.33
2022-11-26T10:35:18.374Z,49.25
2022-11-26T10:37:45.821Z,46.58
2022-11-26T10:40:25.967Z,50.10
2022-11-26T10:43:14.153Z,62.28
2022-11-26T10:45:40.660Z,67.35
2022-11-26T10:48:23.033Z,58.10
2022-11-26T10:51:28.329Z,71.93
2022-11-26T10:53:57.639Z,76.53
2022-11-26T10:56:35.092Z,66.65
2022-11-26T10:59:14.460Z,72.97
2022-11-26T11:01:41.749Z,82.10
2022-11-26T11:04:30.335Z,76.28
2022-11-26T11:06:57.752Z,74.70
2022-11-26T11:09:25.072Z,84.90
2022-11-26T11:12:23.970Z,84.95
2022-11-26T11:14:51.692Z,82.05
2022-11-26T11:17:39.938Z,84.60
2022-11-26T11:20:15.431Z,81.13
2022-11-26T11:22:43.405Z,84.07
2022-11-26T11:25:23.287Z,82.57
2022-11-26T11:27:50.443Z,80.00
2022-11-26T11:30:29.434Z,80.32
2022-11-26T11:32:57.318Z,87.07
2022-11-26T11:35:25.521Z,89.15
2022-11-26T11:37:54.726Z,91.30
2022-11-26T11:40:27.355Z,92.63
2022-11-26T11:43:02.946Z,90.28
2022-11-26T11:45:47.308Z,93.00
2022-11-26T11:49:24.440Z,90.68
2022-11-26T11:52:07.787Z,88.57
2022-11-26T11:54:42.155Z,88.80
2022-11-26T11:57:33.025Z,85.10
2022-11-26T12:00:15.243Z,82.90
2022-11-26T12:03:12.503Z,81.70
2022-11-26T12:06:23.277Z,76.60
2022-11-26T12:08:52.845Z,73.95
2022-11-26T12:11:31.729Z,79.30
2022-11-26T12:14:13.554Z,77.00
2022-11-26T12:16:45.023Z,77.22
2022-11-26T12:19:29.613Z,80.68
2022-11-26T12:22:08.609Z,80.82
2022-11-26T12:25:07.830Z,82.13
2022-11-26T12:27:41.865Z,76.65
2022-11-26T12:30:18.481Z,84.93
2022-11-26T12:33:11.879Z,83.82
2022-11-26T12:36:07.958Z,79.82
2022-11-26T12:38:48.818Z,78.93
2022-11-26T12:41:20.982Z,79.10
2022-11-26T12:43:59.568Z,78.63
2022-11-26T12:46:44.657Z,77.90
2022-11-26T12:52:33.748Z,64.43
2022-11-26T12:55:28.561Z,73.75
2022-11-26T12:58:08.720Z,74.28
2022-11-26T13:00:36.511Z,79.47
2022-11-26T13:03:05.469Z,83.00
2022-11-26T13:05:34.532Z,87.85
2022-11-26T13:08:17.007Z,86.30
2022-11-26T13:10:46.225Z,80.15
2022-11-26T13:13:41.701Z,79.85
2022-11-26T13:16:27.234Z,75.38
2022-11-26T13:19:06.432Z,78.43
2022-11-26T13:22:01.789Z,79.03
2022-11-26T13:24:53.879Z,75.18
2022-11-26T13:27:35.616Z,74.90
2022-11-26T13:30:14.699Z,77.22
2022-11-26T13:33:18.629Z,76.97
2022-11-26T13:35:59.621Z,80.80
2022-11-26T13:38:44.405Z,77.57
2022-11-26T13:41:31.255Z,75.80
2022-11-26T13:44:10.859Z,76.15
2022-11-26T13:46:41.701Z,78.30
2022-11-26T13:49:11.490Z,82.88
2022-11-26T13:51:47.533Z,84.03
2022-11-26T13:54:20.508Z,83.65
2022-11-26T13:56:48.674Z,84.93
2022-11-26T13:59:28.059Z,82.03
2022-11-26T14:01:55.574Z,85.55
2022-11-26T14:04:22.065Z,86.65
2022-11-26T14:07:03.708Z,90.10
2022-11-26T14:09:42.404Z,86.80
2022-11-26T14:12:09.806Z,86.85
2022-11-26T14:14:39.208Z,85.20
2022-11-26T14:17:08.608Z,87.03
2022-11-26T14:19:41.348Z,88.55
2022-11-26T14:22:20.237Z,86.78
2022-11-26T14:24:49.785Z,86.80
2022-11-26T14:27:16.236Z,86.07
2022-11-26T14:29:44.089Z,88.13
2022-11-26T14:32:14.953Z,89.30
2022-11-26T14:34:49.142Z,91.10
2022-11-26T14:37:18.169Z,85.53
2022-11-26T14:39:44.749Z,92.47
2022-11-26T14:42:18.400Z,90.30
2022-11-26T14:44:45.036Z,90.43
2022-11-26T14:47:19.962Z,91.57
2022-11-26T14:49:55.768Z,88.57
2022-11-26T14:52:26.315Z,88.22
2022-11-26T14:54:56.379Z,92.72
2022-11-26T14:57:35.349Z,91.15
2022-11-26T15:00:07.634Z,89.35
2022-11-26T15:02:39.839Z,91.32
2022-11-26T15:05:17.149Z,92.78
2022-11-26T15:07:44.681Z,86.22
2022-11-26T15:10:13.929Z,85.97
2022-11-26T15:12:42.077Z,87.22
2022-11-26T15:15:21.538Z,86.13
2022-11-26T15:17:55.499Z,84.13
2022-11-26T15:20:24.602Z,84.90
2022-11-26T15:22:54.474Z,83.78
2022-11-26T15:25:25.989Z,84.72
2022-11-26T15:28:06.723Z,83.90
2022-11-26T15:30:36.394Z,81.53
2022-11-26T15:33:12.386Z,79.38
2022-11-26T15:35:40.084Z,83.15
2022-11-26T15:38:14.453Z,91.45
2022-11-26T15:40:55.549Z,109.20
2022-11-26T15:43:30.274Z,80.93
2022-11-26T15:48:53.243Z,65.32
2022-11-26T15:51:35.981Z,71.85
2022-11-26T15:54:06.241Z,73.25
2022-11-26T15:56:36.981Z,78.68
2022-11-26T15:59:13.328Z,85.97
2022-11-26T16:01:44.723Z,90.22
2022-11-26T16:04:49.768Z,89.22
2022-11-26T16:07:22.432Z,81.35
2022-11-26T16:09:50.820Z,78.38
2022-11-26T16:12:26.788Z,82.90
2022-11-26T16:14:53.360Z,80.82
2022-11-26T16:17:20.892Z,80.43
2022-11-26T16:19:56.448Z,79.43
2022-11-26T16:22:28.595Z,77.10
2022-11-26T16:25:18.896Z,76.60
2022-11-26T16:28:09.950Z,78.25
2022-11-26T16:30:42.025Z,76.80
2022-11-26T16:33:08.545Z,74.57
2022-11-26T16:35:51.203Z,74.72
2022-11-26T16:38:26.544Z,71.95
2022-11-26T16:40:54.178Z,69.45
2022-11-26T16:43:21.709Z,70.88
2022-11-26T16:45:50.522Z,71.88
2022-11-26T16:48:26.801Z,69.10
2022-11-26T16:50:56.581Z,68.65
2022-11-26T16:53:23.667Z,69.15
2022-11-26T16:55:52.213Z,68.18
2022-11-26T16:58:27.465Z,66.07
2022-11-26T17:00:54.692Z,67.18
2022-11-26T17:03:24.885Z,70.68
2022-11-26T17:05:55.197Z,69.10
2022-11-26T17:08:21.832Z,65.60
2022-11-26T17:10:48.874Z,66.07
2022-11-26T17:13:15.736Z,62.17
2022-11-26T17:15:43.577Z,61.13
2022-11-26T17:18:18.982Z,60.67
2022-11-26T17:20:46.036Z,63.20
2022-11-26T17:23:13.244Z,64.05
2022-11-26T17:25:39.903Z,62.17
2022-11-26T17:28:11.989Z,61.05
2022-11-26T17:30:39.626Z,62.70
2022-11-26T17:33:07.174Z,62.47
2022-11-26T17:35:33.799Z,61.92
2022-11-26T17:38:00.601Z,62.65
2022-11-26T17:40:28.911Z,62.50
2022-11-26T17:42:56.169Z,76.53
2022-11-26T17:45:22.904Z,82.50
2022-11-26T17:47:49.840Z,72.53
2022-11-26T17:50:24.416Z,72.97
2022-11-26T17:52:51.019Z,78.50
2022-11-26T17:55:18.734Z,72.78
2022-11-26T17:57:45.368Z,64.43
2022-11-26T18:00:16.453Z,60.22
2022-11-26T18:02:43.792Z,60.45
2022-11-26T18:05:11.277Z,60.05
2022-11-26T18:07:38.758Z,59.45
2022-11-26T18:10:09.449Z,59.47
2022-11-26T18:12:35.945Z,56.92
2022-11-26T18:15:04.020Z,58.28
2022-11-26T18:17:30.935Z,58.50
2022-11-26T18:19:57.489Z,55.85
2022-11-26T18:22:25.761Z,55.05
2022-11-26T18:24:57.333Z,53.50
2022-11-26T18:27:26.979Z,54.10
2022-11-26T18:29:53.558Z,53.95
2022-11-26T18:32:20.316Z,57.28
2022-11-26T18:34:49.495Z,58.90
2022-11-26T18:37:17.174Z,60.67
2022-11-26T18:39:43.872Z,64.15
2022-11-26T18:44:57.878Z,62.75
2022-11-26T18:47:24.568Z,64.93
2022-11-26T18:49:51.224Z,57.90
2022-11-26T18:52:17.797Z,66.18
2022-11-26T18:54:44.359Z,60.55
2022-11-26T18:57:10.830Z,66.30
2022-11-26T18:59:37.846Z,74.68
2022-11-26T19:02:04.974Z,69.75
2022-11-26T19:04:31.561Z,73.40
2022-11-26T19:06:58.105Z,66.90
2022-11-26T19:09:24.637Z,66.80
2022-11-26T19:11:54.267Z,67.07
2022-11-26T19:14:21.332Z,61.92
2022-11-26T19:16:50.215Z,61.05
2022-11-26T19:19:16.955Z,56.70
2022-11-26T19:21:43.555Z,54.30
2022-11-26T19:24:11.758Z,52.15
2022-11-26T19:26:39.021Z,53.33
2022-11-26T19:29:06.769Z,53.60
2022-11-26T19:31:36.115Z,54.85
2022-11-26T19:34:08.950Z,49.75
2022-11-26T19:36:36.717Z,51.67
2022-11-26T19:39:04.929Z,55.53
2022-11-26T19:41:31.765Z,51.13
2022-11-26T19:44:00.447Z,50.65
2022-11-26T19:46:27.682Z,48.85
2022-11-26T19:48:55.725Z,50.72
2022-11-26T19:51:24.493Z,49.95
2022-11-26T19:53:53.636Z,47.80
2022-11-26T19:56:28.719Z,50.33
2022-11-26T19:58:57.780Z,53.20
2022-11-26T20:01:26.000Z,49.33
2022-11-26T20:03:52.891Z,50.75
2022-11-26T20:06:28.441Z,47.80
2022-11-26T20:08:56.195Z,49.25
2022-11-26T20:11:23.402Z,45.13
2022-11-26T20:13:50.661Z,45.15
2022-11-26T20:16:44.220Z,45.97
2022-11-26T20:19:11.549Z,45.67
2022-11-26T20:21:38.292Z,44.85
2022-11-26T20:24:08.141Z,47.90
2022-11-26T20:26:38.040Z,46.28
2022-11-26T20:29:11.983Z,49.83
2022-11-26T20:31:42.910Z,49.03
2022-11-26T20:34:09.432Z,47.53
2022-11-26T20:36:36.220Z,46.88
2022-11-26T20:39:02.907Z,48.85
2022-11-26T20:41:30.064Z,48.58
2022-11-26T20:43:59.430Z,48.60
2022-11-26T20:46:27.305Z,49.55
2022-11-26T20:48:54.254Z,48.83
2022-11-26T20:51:22.158Z,46.33
2022-11-26T20:53:50.589Z,44.45
2022-11-26T20:56:19.327Z,44.60
2022-11-26T20:58:46.122Z,44.08
2022-11-26T21:01:19.080Z,45.28
2022-11-26T21:03:46.210Z,46.58
2022-11-26T21:06:14.261Z,46.85
2022-11-26T21:08:41.997Z,47.17
2022-11-26T21:11:08.909Z,46.10
2022-11-26T21:13:37.948Z,45.28
2022-11-26T21:16:06.333Z,45.45
2022-11-26T21:18:33.377Z,48.75
2022-11-26T21:21:00.312Z,45.40
2022-11-26T21:23:27.365Z,47.42
2022-11-26T21:25:54.478Z,44.45
2022-11-26T21:28:21.064Z,45.88
2022-11-26T21:30:47.639Z,48.28
2022-11-26T21:33:14.429Z,43.88
2022-11-26T21:35:40.956Z,48.95
2022-11-26T21:38:07.464Z,45.92
2022-11-26T21:40:34.025Z,44.53
2022-11-26T21:43:00.529Z,45.63
2022-11-26T21:45:27.848Z,45.90
2022-11-26T21:47:54.509Z,50.38
2022-11-26T21:50:21.036Z,48.00
2022-11-26T21:52:47.605Z,44.05
2022-11-26T21:55:14.166Z,48.15
2022-11-26T21:57:40.718Z,47.22
2022-11-26T22:00:07.859Z,48.10
2022-11-26T22:02:34.447Z,46.55
2022-11-26T22:05:00.995Z,46.63
2022-11-26T22:07:27.821Z,47.92
2022-11-26T22:09:54.606Z,45.20
2022-11-26T22:12:21.088Z,47.15
2022-11-26T22:14:47.744Z,46.63
2022-11-26T22:17:14.259Z,44.75
2022-11-26T22:19:41.040Z,45.85
2022-11-26T22:22:07.817Z,46.17
2022-11-26T22:24:34.349Z,44.35
2022-11-26T22:27:00.916Z,44.83
2022-11-26T22:29:27.408Z,43.90
2022-11-26T22:31:53.956Z,47.63
2022-11-26T22:34:24.726Z,46.15
2022-11-26T22:36:51.701Z,45.50
2022-11-26T22:39:19.038Z,44.95
2022-11-26T22:41:46.872Z,43.80
2022-11-26T22:44:14.697Z,44.10
2022-11-26T22:46:41.237Z,43.60
2022-11-26T22:49:15.600Z,44.92
2022-11-26T22:51:42.578Z,40.30
2022-11-26T22:54:11.675Z,38.72
2022-11-26T22:56:38.592Z,40.03
2022-11-26T22:59:06.939Z,42.05
2022-11-26T23:01:35.273Z,43.53
2022-11-26T23:04:04.471Z,43.75
2022-11-26T23:06:32.735Z,42.83
2022-11-26T23:09:00.489Z,44.42
2022-11-26T23:11:32.791Z,42.97
2022-11-26T23:13:59.416Z,41.03
2022-11-26T23:16:27.115Z,42.13
2022-11-26T23:18:55.115Z,42.53
2022-11-26T23:21:27.814Z,43.90
2022-11-26T23:23:54.992Z,42.28
2022-11-26T23:26:30.528Z,46.25
2022-11-26T23:28:58.569Z,45.65
2022-11-26T23:31:28.503Z,47.20
2022-11-26T23:33:55.311Z,48.78
2022-11-26T23:36:22.688Z,48.05
2022-11-26T23:38:49.517Z,52.03
2022-11-26T23:41:16.305Z,48.80
2022-11-26T23:43:43.406Z,49.00
2022-11-26T23:46:17.237Z,50.95
2022-11-26T23:48:44.781Z,52.87
2022-11-26T23:51:16.969Z,52.13
2022-11-26T23:53:45.577Z,51.75
2022-11-26T23:56:17.491Z,54.22
2022-11-26T23:58:43.985Z,51.58
